sensor_id;sensor_type;location;lat;lon;timestamp;P1;durP1;ratioP1;P2;durP2;ratioP2
46463;SDS011;32161;48.148;-1.554;2023-06-22T00:01:19;6.93;;;3.40;;
46463;SDS011;32161;48.148;-1.554;2023-06-22T00:03:47;6.43;;;3.70;;
46463;SDS011;32161;48.148;-1.554;2023-06-22T00:06:15;8.90;;;3.58;;
46463;SDS011;32161;48.148;-1.554;2023-06-22T00:08:44;7.53;;;3.38;;
46463;SDS011;32161;48.148;-1.554;2023-06-22T00:11:12;6.25;;;3.47;;
46463;SDS011;32161;48.148;-1.554;2023-06-22T00:13:40;4.60;;;3.20;;
46463;SDS011;32161;48.148;-1.554;2023-06-22T00:16:07;3.95;;;3.50;;
46463;SDS011;32161;48.148;-1.554;2023-06-22T00:18:35;4.30;;;3.67;;
46463;SDS011;32161;48.148;-1.554;2023-06-22T00:21:02;4.25;;;3.30;;
46463;SDS011;32161;48.148;-1.554;2023-06-22T00:23:31;5.78;;;3.65;;
46463;SDS011;32161;48.148;-1.554;2023-06-22T00:26:01;5.47;;;3.35;;
46463;SDS011;32161;48.148;-1.554;2023-06-22T00:28:28;5.25;;;3.42;;
46463;SDS011;32161;48.148;-1.554;2023-06-22T00:30:56;4.88;;;3.22;;
46463;SDS011;32161;48.148;-1.554;2023-06-22T00:33:24;6.72;;;3.25;;
46463;SDS011;32161;48.148;-1.554;2023-06-22T00:35:53;11.93;;;3.90;;
46463;SDS011;32161;48.148;-1.554;2023-06-22T00:38:21;5.88;;;3.92;;
46463;SDS011;32161;48.148;-1.554;2023-06-22T00:40:48;4.35;;;3.42;;
46463;SDS011;32161;48.148;-1.554;2023-06-22T00:43:17;5.93;;;3.38;;
46463;SDS011;32161;48.148;-1.554;2023-06-22T00:45:45;5.43;;;3.92;;
46463;SDS011;32161;48.148;-1.554;2023-06-22T00:48:13;6.30;;;4.07;;
46463;SDS011;32161;48.148;-1.554;2023-06-22T00:50:41;5.30;;;3.72;;
46463;SDS011;32161;48.148;-1.554;2023-06-22T00:53:09;4.07;;;3.65;;
46463;SDS011;32161;48.148;-1.554;2023-06-22T00:55:37;11.68;;;3.72;;
46463;SDS011;32161;48.148;-1.554;2023-06-22T00:58:09;4.85;;;3.30;;
46463;SDS011;32161;48.148;-1.554;2023-06-22T01:00:39;3.80;;;3.30;;
46463;SDS011;32161;48.148;-1.554;2023-06-22T01:03:07;6.47;;;4.00;;
46463;SDS011;32161;48.148;-1.554;2023-06-22T01:05:35;5.57;;;3.60;;
46463;SDS011;32161;48.148;-1.554;2023-06-22T01:08:11;4.97;;;3.65;;
46463;SDS011;32161;48.148;-1.554;2023-06-22T01:10:51;4.10;;;3.70;;
46463;SDS011;32161;48.148;-1.554;2023-06-22T01:13:26;4.10;;;3.28;;
46463;SDS011;32161;48.148;-1.554;2023-06-22T01:16:02;4.32;;;3.30;;
46463;SDS011;32161;48.148;-1.554;2023-06-22T01:18:35;4.78;;;3.60;;
46463;SDS011;32161;48.148;-1.554;2023-06-22T01:21:06;5.43;;;3.50;;
46463;SDS011;32161;48.148;-1.554;2023-06-22T01:23:50;7.22;;;3.95;;
46463;SDS011;32161;48.148;-1.554;2023-06-22T01:26:28;6.50;;;3.78;;
46463;SDS011;32161;48.148;-1.554;2023-06-22T01:29:06;4.53;;;3.90;;
46463;SDS011;32161;48.148;-1.554;2023-06-22T01:31:38;7.22;;;4.18;;
46463;SDS011;32161;48.148;-1.554;2023-06-22T01:34:08;3.72;;;3.42;;
46463;SDS011;32161;48.148;-1.554;2023-06-22T01:36:37;7.60;;;4.10;;
46463;SDS011;32161;48.148;-1.554;2023-06-22T01:39:06;3.80;;;3.50;;
46463;SDS011;32161;48.148;-1.554;2023-06-22T01:41:36;5.88;;;3.78;;
46463;SDS011;32161;48.148;-1.554;2023-06-22T01:44:05;4.85;;;3.92;;
46463;SDS011;32161;48.148;-1.554;2023-06-22T01:46:35;6.20;;;4.17;;
46463;SDS011;32161;48.148;-1.554;2023-06-22T01:49:03;5.28;;;4.38;;
46463;SDS011;32161;48.148;-1.554;2023-06-22T01:51:32;6.35;;;3.70;;
46463;SDS011;32161;48.148;-1.554;2023-06-22T01:54:00;8.02;;;4.13;;
46463;SDS011;32161;48.148;-1.554;2023-06-22T01:56:28;4.22;;;3.88;;
46463;SDS011;32161;48.148;-1.554;2023-06-22T01:58:57;4.00;;;3.63;;
46463;SDS011;32161;48.148;-1.554;2023-06-22T02:01:33;3.95;;;3.47;;
46463;SDS011;32161;48.148;-1.554;2023-06-22T02:04:09;5.03;;;3.65;;
46463;SDS011;32161;48.148;-1.554;2023-06-22T02:06:45;4.88;;;3.55;;
46463;SDS011;32161;48.148;-1.554;2023-06-22T02:09:17;7.18;;;3.83;;
46463;SDS011;32161;48.148;-1.554;2023-06-22T02:11:48;4.97;;;4.03;;
46463;SDS011;32161;48.148;-1.554;2023-06-22T02:14:20;6.60;;;4.07;;
46463;SDS011;32161;48.148;-1.554;2023-06-22T02:16:51;7.22;;;4.38;;
46463;SDS011;32161;48.148;-1.554;2023-06-22T02:19:22;8.13;;;4.40;;
46463;SDS011;32161;48.148;-1.554;2023-06-22T02:21:50;7.05;;;3.92;;
46463;SDS011;32161;48.148;-1.554;2023-06-22T02:24:18;4.68;;;4.22;;
46463;SDS011;32161;48.148;-1.554;2023-06-22T02:26:48;4.18;;;3.58;;
46463;SDS011;32161;48.148;-1.554;2023-06-22T02:29:16;7.78;;;4.03;;
46463;SDS011;32161;48.148;-1.554;2023-06-22T02:31:44;6.13;;;3.55;;
46463;SDS011;32161;48.148;-1.554;2023-06-22T02:34:13;4.07;;;3.78;;
46463;SDS011;32161;48.148;-1.554;2023-06-22T02:36:43;3.85;;;3.60;;
46463;SDS011;32161;48.148;-1.554;2023-06-22T02:39:16;3.90;;;3.30;;
46463;SDS011;32161;48.148;-1.554;2023-06-22T02:41:45;7.07;;;3.53;;
46463;SDS011;32161;48.148;-1.554;2023-06-22T02:44:13;4.53;;;3.80;;
46463;SDS011;32161;48.148;-1.554;2023-06-22T02:46:41;6.07;;;3.78;;
46463;SDS011;32161;48.148;-1.554;2023-06-22T02:49:08;4.78;;;3.97;;
46463;SDS011;32161;48.148;-1.554;2023-06-22T02:51:38;4.78;;;3.67;;
46463;SDS011;32161;48.148;-1.554;2023-06-22T02:54:11;4.70;;;3.55;;
46463;SDS011;32161;48.148;-1.554;2023-06-22T02:56:38;4.68;;;3.67;;
46463;SDS011;32161;48.148;-1.554;2023-06-22T02:59:09;3.60;;;3.07;;
46463;SDS011;32161;48.148;-1.554;2023-06-22T03:01:36;3.30;;;2.92;;
46463;SDS011;32161;48.148;-1.554;2023-06-22T03:04:06;3.22;;;3.00;;
46463;SDS011;32161;48.148;-1.554;2023-06-22T03:06:34;5.78;;;3.67;;
46463;SDS011;32161;48.148;-1.554;2023-06-22T03:09:04;3.60;;;3.30;;
46463;SDS011;32161;48.148;-1.554;2023-06-22T03:11:32;4.00;;;3.70;;
46463;SDS011;32161;48.148;-1.554;2023-06-22T03:14:00;3.80;;;3.42;;
46463;SDS011;32161;48.148;-1.554;2023-06-22T03:16:28;3.50;;;3.03;;
46463;SDS011;32161;48.148;-1.554;2023-06-22T03:18:56;5.25;;;3.35;;
46463;SDS011;32161;48.148;-1.554;2023-06-22T03:21:23;4.05;;;3.38;;
46463;SDS011;32161;48.148;-1.554;2023-06-22T03:23:54;3.63;;;3.10;;
46463;SDS011;32161;48.148;-1.554;2023-06-22T03:26:23;4.00;;;3.80;;
46463;SDS011;32161;48.148;-1.554;2023-06-22T03:28:52;5.88;;;3.35;;
46463;SDS011;32161;48.148;-1.554;2023-06-22T03:31:19;6.85;;;3.72;;
46463;SDS011;32161;48.148;-1.554;2023-06-22T03:33:47;6.88;;;3.55;;
46463;SDS011;32161;48.148;-1.554;2023-06-22T03:36:14;6.25;;;4.32;;
46463;SDS011;32161;48.148;-1.554;2023-06-22T03:38:44;3.30;;;3.00;;
46463;SDS011;32161;48.148;-1.554;2023-06-22T03:41:12;3.95;;;3.65;;
46463;SDS011;32161;48.148;-1.554;2023-06-22T03:43:41;3.38;;;3.08;;
46463;SDS011;32161;48.148;-1.554;2023-06-22T03:46:08;3.67;;;3.28;;
46463;SDS011;32161;48.148;-1.554;2023-06-22T03:48:36;6.03;;;3.80;;
46463;SDS011;32161;48.148;-1.554;2023-06-22T03:51:04;3.70;;;3.40;;
46463;SDS011;32161;48.148;-1.554;2023-06-22T03:53:32;3.33;;;3.05;;
46463;SDS011;32161;48.148;-1.554;2023-06-22T03:56:00;6.13;;;3.35;;
46463;SDS011;32161;48.148;-1.554;2023-06-22T03:58:27;4.45;;;3.40;;
46463;SDS011;32161;48.148;-1.554;2023-06-22T04:00:59;7.18;;;3.50;;
46463;SDS011;32161;48.148;-1.554;2023-06-22T04:03:26;3.90;;;2.95;;
46463;SDS011;32161;48.148;-1.554;2023-06-22T04:05:54;4.82;;;3.50;;
46463;SDS011;32161;48.148;-1.554;2023-06-22T04:08:21;3.60;;;3.30;;
46463;SDS011;32161;48.148;-1.554;2023-06-22T04:10:49;3.92;;;3.38;;
46463;SDS011;32161;48.148;-1.554;2023-06-22T04:13:17;3.97;;;3.22;;
46463;SDS011;32161;48.148;-1.554;2023-06-22T04:15:44;3.65;;;3.30;;
46463;SDS011;32161;48.148;-1.554;2023-06-22T04:18:13;3.90;;;3.63;;
46463;SDS011;32161;48.148;-1.554;2023-06-22T04:20:41;5.03;;;3.50;;
46463;SDS011;32161;48.148;-1.554;2023-06-22T04:23:12;5.05;;;3.33;;
46463;SDS011;32161;48.148;-1.554;2023-06-22T04:25:39;4.40;;;3.72;;
46463;SDS011;32161;48.148;-1.554;2023-06-22T04:28:07;4.85;;;3.33;;
46463;SDS011;32161;48.148;-1.554;2023-06-22T04:30:37;4.30;;;3.03;;
46463;SDS011;32161;48.148;-1.554;2023-06-22T04:33:13;9.20;;;3.22;;
46463;SDS011;32161;48.148;-1.554;2023-06-22T04:35:42;9.73;;;3.67;;
46463;SDS011;32161;48.148;-1.554;2023-06-22T04:38:12;3.63;;;3.17;;
46463;SDS011;32161;48.148;-1.554;2023-06-22T04:40:40;3.20;;;3.00;;
46463;SDS011;32161;48.148;-1.554;2023-06-22T04:43:07;4.53;;;3.22;;
46463;SDS011;32161;48.148;-1.554;2023-06-22T04:45:35;3.42;;;2.80;;
46463;SDS011;32161;48.148;-1.554;2023-06-22T04:48:03;3.95;;;3.30;;
46463;SDS011;32161;48.148;-1.554;2023-06-22T04:50:33;4.22;;;2.95;;
46463;SDS011;32161;48.148;-1.554;2023-06-22T04:53:01;4.85;;;3.00;;
46463;SDS011;32161;48.148;-1.554;2023-06-22T04:55:30;5.82;;;3.45;;
46463;SDS011;32161;48.148;-1.554;2023-06-22T04:57:58;7.18;;;3.25;;
46463;SDS011;32161;48.148;-1.554;2023-06-22T05:00:30;2.78;;;2.58;;
46463;SDS011;32161;48.148;-1.554;2023-06-22T05:03:01;4.53;;;2.75;;
46463;SDS011;32161;48.148;-1.554;2023-06-22T05:05:31;3.23;;;3.00;;
46463;SDS011;32161;48.148;-1.554;2023-06-22T05:08:00;3.20;;;2.92;;
46463;SDS011;32161;48.148;-1.554;2023-06-22T05:10:28;3.20;;;2.97;;
46463;SDS011;32161;48.148;-1.554;2023-06-22T05:12:55;4.57;;;3.15;;
46463;SDS011;32161;48.148;-1.554;2023-06-22T05:15:23;4.57;;;3.05;;
46463;SDS011;32161;48.148;-1.554;2023-06-22T05:17:55;3.67;;;3.10;;
46463;SDS011;32161;48.148;-1.554;2023-06-22T05:20:23;4.93;;;3.42;;
46463;SDS011;32161;48.148;-1.554;2023-06-22T05:22:52;5.85;;;3.33;;
46463;SDS011;32161;48.148;-1.554;2023-06-22T05:25:20;3.65;;;3.30;;
46463;SDS011;32161;48.148;-1.554;2023-06-22T05:27:47;3.33;;;3.05;;
46463;SDS011;32161;48.148;-1.554;2023-06-22T05:30:17;3.90;;;3.45;;
46463;SDS011;32161;48.148;-1.554;2023-06-22T05:32:44;3.80;;;3.38;;
46463;SDS011;32161;48.148;-1.554;2023-06-22T05:35:12;3.40;;;3.20;;
46463;SDS011;32161;48.148;-1.554;2023-06-22T05:37:39;6.00;;;3.58;;
46463;SDS011;32161;48.148;-1.554;2023-06-22T05:40:10;6.32;;;4.03;;
46463;SDS011;32161;48.148;-1.554;2023-06-22T05:45:06;5.03;;;3.83;;
46463;SDS011;32161;48.148;-1.554;2023-06-22T05:47:34;3.78;;;3.47;;
46463;SDS011;32161;48.148;-1.554;2023-06-22T05:50:02;5.53;;;3.67;;
46463;SDS011;32161;48.148;-1.554;2023-06-22T05:52:31;5.47;;;3.60;;
46463;SDS011;32161;48.148;-1.554;2023-06-22T05:54:59;3.75;;;3.45;;
46463;SDS011;32161;48.148;-1.554;2023-06-22T05:57:29;4.88;;;4.47;;
46463;SDS011;32161;48.148;-1.554;2023-06-22T05:59:56;3.50;;;3.20;;
46463;SDS011;32161;48.148;-1.554;2023-06-22T06:02:24;4.47;;;2.83;;
46463;SDS011;32161;48.148;-1.554;2023-06-22T06:04:52;5.80;;;3.10;;
46463;SDS011;32161;48.148;-1.554;2023-06-22T06:07:19;5.38;;;3.30;;
46463;SDS011;32161;48.148;-1.554;2023-06-22T06:09:47;7.50;;;3.60;;
46463;SDS011;32161;48.148;-1.554;2023-06-22T06:12:15;3.40;;;3.00;;
46463;SDS011;32161;48.148;-1.554;2023-06-22T06:14:44;6.05;;;3.47;;
46463;SDS011;32161;48.148;-1.554;2023-06-22T06:17:12;4.72;;;2.97;;
46463;SDS011;32161;48.148;-1.554;2023-06-22T06:19:40;3.00;;;2.50;;
46463;SDS011;32161;48.148;-1.554;2023-06-22T06:22:07;16.75;;;3.85;;
46463;SDS011;32161;48.148;-1.554;2023-06-22T06:24:35;3.08;;;2.78;;
46463;SDS011;32161;48.148;-1.554;2023-06-22T06:27:02;8.30;;;3.88;;
46463;SDS011;32161;48.148;-1.554;2023-06-22T06:29:31;2.92;;;2.70;;
46463;SDS011;32161;48.148;-1.554;2023-06-22T06:32:00;3.13;;;2.80;;
46463;SDS011;32161;48.148;-1.554;2023-06-22T06:34:27;2.50;;;2.30;;
46463;SDS011;32161;48.148;-1.554;2023-06-22T06:36:55;3.03;;;2.42;;
46463;SDS011;32161;48.148;-1.554;2023-06-22T06:39:22;3.75;;;3.05;;
46463;SDS011;32161;48.148;-1.554;2023-06-22T06:41:50;5.22;;;2.20;;
46463;SDS011;32161;48.148;-1.554;2023-06-22T06:44:18;3.40;;;2.40;;
46463;SDS011;32161;48.148;-1.554;2023-06-22T06:46:45;3.10;;;2.80;;
46463;SDS011;32161;48.148;-1.554;2023-06-22T06:49:14;2.85;;;2.25;;
46463;SDS011;32161;48.148;-1.554;2023-06-22T06:51:42;3.90;;;2.17;;
46463;SDS011;32161;48.148;-1.554;2023-06-22T06:54:10;2.70;;;2.30;;
46463;SDS011;32161;48.148;-1.554;2023-06-22T06:56:37;5.65;;;2.33;;
46463;SDS011;32161;48.148;-1.554;2023-06-22T06:59:05;2.90;;;2.70;;
46463;SDS011;32161;48.148;-1.554;2023-06-22T07:01:33;2.65;;;2.50;;
46463;SDS011;32161;48.148;-1.554;2023-06-22T07:04:01;3.00;;;2.72;;
46463;SDS011;32161;48.148;-1.554;2023-06-22T07:06:30;5.28;;;2.47;;
46463;SDS011;32161;48.148;-1.554;2023-06-22T07:08:58;3.35;;;2.38;;
46463;SDS011;32161;48.148;-1.554;2023-06-22T07:11:26;4.80;;;2.40;;
46463;SDS011;32161;48.148;-1.554;2023-06-22T07:13:54;2.20;;;2.10;;
46463;SDS011;32161;48.148;-1.554;2023-06-22T07:16:21;4.45;;;2.13;;
46463;SDS011;32161;48.148;-1.554;2023-06-22T07:18:50;7.03;;;2.83;;
46463;SDS011;32161;48.148;-1.554;2023-06-22T07:21:18;3.30;;;2.58;;
46463;SDS011;32161;48.148;-1.554;2023-06-22T07:23:47;3.83;;;2.53;;
46463;SDS011;32161;48.148;-1.554;2023-06-22T07:26:15;3.72;;;2.38;;
46463;SDS011;32161;48.148;-1.554;2023-06-22T07:28:42;3.33;;;2.40;;
46463;SDS011;32161;48.148;-1.554;2023-06-22T07:31:10;6.97;;;2.40;;
46463;SDS011;32161;48.148;-1.554;2023-06-22T07:33:37;2.40;;;2.20;;
46463;SDS011;32161;48.148;-1.554;2023-06-22T07:36:05;2.90;;;1.90;;
46463;SDS011;32161;48.148;-1.554;2023-06-22T07:38:33;3.75;;;3.05;;
46463;SDS011;32161;48.148;-1.554;2023-06-22T07:41:03;4.18;;;2.53;;
46463;SDS011;32161;48.148;-1.554;2023-06-22T07:43:31;4.38;;;2.40;;
46463;SDS011;32161;48.148;-1.554;2023-06-22T07:45:59;4.07;;;2.78;;
46463;SDS011;32161;48.148;-1.554;2023-06-22T07:48:27;3.78;;;2.10;;
46463;SDS011;32161;48.148;-1.554;2023-06-22T07:50:55;3.08;;;2.42;;
46463;SDS011;32161;48.148;-1.554;2023-06-22T07:53:22;5.97;;;2.28;;
46463;SDS011;32161;48.148;-1.554;2023-06-22T07:55:50;4.15;;;2.60;;
46463;SDS011;32161;48.148;-1.554;2023-06-22T07:58:19;2.45;;;2.17;;
46463;SDS011;32161;48.148;-1.554;2023-06-22T08:00:46;2.83;;;2.22;;
46463;SDS011;32161;48.148;-1.554;2023-06-22T08:03:15;3.38;;;2.40;;
46463;SDS011;32161;48.148;-1.554;2023-06-22T08:05:42;8.18;;;2.50;;
46463;SDS011;32161;48.148;-1.554;2023-06-22T08:08:10;3.20;;;1.90;;
46463;SDS011;32161;48.148;-1.554;2023-06-22T08:10:39;3.47;;;2.00;;
46463;SDS011;32161;48.148;-1.554;2023-06-22T08:13:07;4.18;;;2.10;;
46463;SDS011;32161;48.148;-1.554;2023-06-22T08:15:37;6.32;;;2.17;;
46463;SDS011;32161;48.148;-1.554;2023-06-22T08:18:05;2.97;;;2.50;;
46463;SDS011;32161;48.148;-1.554;2023-06-22T08:20:33;4.10;;;2.25;;
46463;SDS011;32161;48.148;-1.554;2023-06-22T08:23:00;2.42;;;2.22;;
46463;SDS011;32161;48.148;-1.554;2023-06-22T08:25:31;4.35;;;2.10;;
46463;SDS011;32161;48.148;-1.554;2023-06-22T08:27:59;2.72;;;2.00;;
46463;SDS011;32161;48.148;-1.554;2023-06-22T08:30:27;2.25;;;2.08;;
46463;SDS011;32161;48.148;-1.554;2023-06-22T08:32:56;6.28;;;2.25;;
46463;SDS011;32161;48.148;-1.554;2023-06-22T08:35:23;3.15;;;2.40;;
46463;SDS011;32161;48.148;-1.554;2023-06-22T08:37:51;4.90;;;2.10;;
46463;SDS011;32161;48.148;-1.554;2023-06-22T08:40:20;1.92;;;1.73;;
46463;SDS011;32161;48.148;-1.554;2023-06-22T08:42:48;3.05;;;2.50;;
46463;SDS011;32161;48.148;-1.554;2023-06-22T08:45:16;2.30;;;2.10;;
46463;SDS011;32161;48.148;-1.554;2023-06-22T08:47:43;1.90;;;1.80;;
46463;SDS011;32161;48.148;-1.554;2023-06-22T08:50:12;2.67;;;2.47;;
46463;SDS011;32161;48.148;-1.554;2023-06-22T08:52:40;2.08;;;1.90;;
46463;SDS011;32161;48.148;-1.554;2023-06-22T08:55:08;3.58;;;2.20;;
46463;SDS011;32161;48.148;-1.554;2023-06-22T08:57:37;5.43;;;2.65;;
46463;SDS011;32161;48.148;-1.554;2023-06-22T09:00:05;2.83;;;1.70;;
46463;SDS011;32161;48.148;-1.554;2023-06-22T09:02:45;5.75;;;2.22;;
46463;SDS011;32161;48.148;-1.554;2023-06-22T09:05:15;2.95;;;2.03;;
46463;SDS011;32161;48.148;-1.554;2023-06-22T09:07:43;5.47;;;1.83;;
46463;SDS011;32161;48.148;-1.554;2023-06-22T09:10:11;4.45;;;1.92;;
46463;SDS011;32161;48.148;-1.554;2023-06-22T09:12:39;6.18;;;2.45;;
46463;SDS011;32161;48.148;-1.554;2023-06-22T09:15:07;1.83;;;1.70;;
46463;SDS011;32161;48.148;-1.554;2023-06-22T09:17:36;4.10;;;2.13;;
46463;SDS011;32161;48.148;-1.554;2023-06-22T09:20:05;1.98;;;1.85;;
46463;SDS011;32161;48.148;-1.554;2023-06-22T09:22:37;5.50;;;2.03;;
46463;SDS011;32161;48.148;-1.554;2023-06-22T09:25:05;2.10;;;1.90;;
46463;SDS011;32161;48.148;-1.554;2023-06-22T09:27:33;2.05;;;1.75;;
46463;SDS011;32161;48.148;-1.554;2023-06-22T09:30:01;1.80;;;1.70;;
46463;SDS011;32161;48.148;-1.554;2023-06-22T09:32:29;3.90;;;2.13;;
46463;SDS011;32161;48.148;-1.554;2023-06-22T09:34:57;2.20;;;2.08;;
46463;SDS011;32161;48.148;-1.554;2023-06-22T09:37:24;4.95;;;2.30;;
46463;SDS011;32161;48.148;-1.554;2023-06-22T09:39:53;2.17;;;1.67;;
46463;SDS011;32161;48.148;-1.554;2023-06-22T09:42:21;2.60;;;1.95;;
46463;SDS011;32161;48.148;-1.554;2023-06-22T09:44:48;2.63;;;1.80;;
46463;SDS011;32161;48.148;-1.554;2023-06-22T09:47:16;2.22;;;2.03;;
46463;SDS011;32161;48.148;-1.554;2023-06-22T09:49:44;4.72;;;1.83;;
46463;SDS011;32161;48.148;-1.554;2023-06-22T09:52:11;2.33;;;1.95;;
46463;SDS011;32161;48.148;-1.554;2023-06-22T09:54:39;3.13;;;1.92;;
46463;SDS011;32161;48.148;-1.554;2023-06-22T09:57:08;4.70;;;1.70;;
46463;SDS011;32161;48.148;-1.554;2023-06-22T09:59:35;1.88;;;1.73;;
46463;SDS011;32161;48.148;-1.554;2023-06-22T10:02:03;3.90;;;2.10;;
46463;SDS011;32161;48.148;-1.554;2023-06-22T10:04:31;4.53;;;1.75;;
46463;SDS011;32161;48.148;-1.554;2023-06-22T10:06:59;2.70;;;1.92;;
46463;SDS011;32161;48.148;-1.554;2023-06-22T10:09:28;4.15;;;1.95;;
46463;SDS011;32161;48.148;-1.554;2023-06-22T10:11:55;2.28;;;2.17;;
46463;SDS011;32161;48.148;-1.554;2023-06-22T10:14:24;3.20;;;1.88;;
46463;SDS011;32161;48.148;-1.554;2023-06-22T10:16:54;2.83;;;2.10;;
46463;SDS011;32161;48.148;-1.554;2023-06-22T10:19:22;2.88;;;2.00;;
46463;SDS011;32161;48.148;-1.554;2023-06-22T10:21:49;2.28;;;2.10;;
46463;SDS011;32161;48.148;-1.554;2023-06-22T10:24:17;2.28;;;1.88;;
46463;SDS011;32161;48.148;-1.554;2023-06-22T10:26:44;3.13;;;2.40;;
46463;SDS011;32161;48.148;-1.554;2023-06-22T10:29:12;2.60;;;2.03;;
46463;SDS011;32161;48.148;-1.554;2023-06-22T10:31:41;2.60;;;2.35;;
46463;SDS011;32161;48.148;-1.554;2023-06-22T10:34:08;1.92;;;1.80;;
46463;SDS011;32161;48.148;-1.554;2023-06-22T10:36:36;4.88;;;2.08;;
46463;SDS011;32161;48.148;-1.554;2023-06-22T10:39:04;2.60;;;2.25;;
46463;SDS011;32161;48.148;-1.554;2023-06-22T10:41:32;3.58;;;2.13;;
46463;SDS011;32161;48.148;-1.554;2023-06-22T10:43:59;2.42;;;2.20;;
46463;SDS011;32161;48.148;-1.554;2023-06-22T10:46:27;2.53;;;1.98;;
46463;SDS011;32161;48.148;-1.554;2023-06-22T10:48:56;2.08;;;1.83;;
46463;SDS011;32161;48.148;-1.554;2023-06-22T10:51:24;1.95;;;1.45;;
46463;SDS011;32161;48.148;-1.554;2023-06-22T10:53:53;2.15;;;1.95;;
46463;SDS011;32161;48.148;-1.554;2023-06-22T10:56:20;3.78;;;1.83;;
46463;SDS011;32161;48.148;-1.554;2023-06-22T10:58:48;1.75;;;1.63;;
46463;SDS011;32161;48.148;-1.554;2023-06-22T11:01:16;2.50;;;2.22;;
46463;SDS011;32161;48.148;-1.554;2023-06-22T11:03:43;2.80;;;2.17;;
46463;SDS011;32161;48.148;-1.554;2023-06-22T11:06:13;2.20;;;2.00;;
46463;SDS011;32161;48.148;-1.554;2023-06-22T11:08:43;5.00;;;2.03;;
46463;SDS011;32161;48.148;-1.554;2023-06-22T11:11:11;3.13;;;2.10;;
46463;SDS011;32161;48.148;-1.554;2023-06-22T11:13:38;2.17;;;2.00;;
46463;SDS011;32161;48.148;-1.554;2023-06-22T11:16:06;6.15;;;2.13;;
46463;SDS011;32161;48.148;-1.554;2023-06-22T11:18:34;2.30;;;1.80;;
46463;SDS011;32161;48.148;-1.554;2023-06-22T11:21:02;2.53;;;2.20;;
46463;SDS011;32161;48.148;-1.554;2023-06-22T11:23:31;2.50;;;1.70;;
46463;SDS011;32161;48.148;-1.554;2023-06-22T11:25:58;4.95;;;2.00;;
46463;SDS011;32161;48.148;-1.554;2023-06-22T11:28:26;4.20;;;1.90;;
46463;SDS011;32161;48.148;-1.554;2023-06-22T11:30:53;3.92;;;2.25;;
46463;SDS011;32161;48.148;-1.554;2023-06-22T11:33:21;3.05;;;1.85;;
46463;SDS011;32161;48.148;-1.554;2023-06-22T11:35:49;2.78;;;1.70;;
46463;SDS011;32161;48.148;-1.554;2023-06-22T11:38:16;2.28;;;2.03;;
46463;SDS011;32161;48.148;-1.554;2023-06-22T11:40:45;4.25;;;2.08;;
46463;SDS011;32161;48.148;-1.554;2023-06-22T11:43:13;2.38;;;2.05;;
46463;SDS011;32161;48.148;-1.554;2023-06-22T11:45:41;1.70;;;1.70;;
46463;SDS011;32161;48.148;-1.554;2023-06-22T11:48:08;2.60;;;2.40;;
46463;SDS011;32161;48.148;-1.554;2023-06-22T11:50:36;2.33;;;1.67;;
46463;SDS011;32161;48.148;-1.554;2023-06-22T11:53:03;2.20;;;2.00;;
46463;SDS011;32161;48.148;-1.554;2023-06-22T11:55:31;4.10;;;2.13;;
46463;SDS011;32161;48.148;-1.554;2023-06-22T11:58:00;1.80;;;1.70;;
46463;SDS011;32161;48.148;-1.554;2023-06-22T12:00:29;2.00;;;1.75;;
46463;SDS011;32161;48.148;-1.554;2023-06-22T12:02:56;4.75;;;1.80;;
46463;SDS011;32161;48.148;-1.554;2023-06-22T12:05:24;3.58;;;2.20;;
46463;SDS011;32161;48.148;-1.554;2023-06-22T12:07:52;2.15;;;1.63;;
46463;SDS011;32161;48.148;-1.554;2023-06-22T12:10:20;1.38;;;1.27;;
46463;SDS011;32161;48.148;-1.554;2023-06-22T12:12:50;1.70;;;1.63;;
46463;SDS011;32161;48.148;-1.554;2023-06-22T12:15:19;1.98;;;1.77;;
46463;SDS011;32161;48.148;-1.554;2023-06-22T12:17:47;3.15;;;2.03;;
46463;SDS011;32161;48.148;-1.554;2023-06-22T12:20:14;2.28;;;1.63;;
46463;SDS011;32161;48.148;-1.554;2023-06-22T12:22:42;2.97;;;1.98;;
46463;SDS011;32161;48.148;-1.554;2023-06-22T12:25:10;3.83;;;2.17;;
46463;SDS011;32161;48.148;-1.554;2023-06-22T12:27:38;3.08;;;2.08;;
46463;SDS011;32161;48.148;-1.554;2023-06-22T12:30:06;3.60;;;1.95;;
46463;SDS011;32161;48.148;-1.554;2023-06-22T12:32:36;2.95;;;2.00;;
46463;SDS011;32161;48.148;-1.554;2023-06-22T12:35:04;2.78;;;1.80;;
46463;SDS011;32161;48.148;-1.554;2023-06-22T12:37:38;5.25;;;2.08;;
46463;SDS011;32161;48.148;-1.554;2023-06-22T12:40:07;2.53;;;1.80;;
46463;SDS011;32161;48.148;-1.554;2023-06-22T12:42:36;4.43;;;2.22;;
46463;SDS011;32161;48.148;-1.554;2023-06-22T12:45:05;2.30;;;2.10;;
46463;SDS011;32161;48.148;-1.554;2023-06-22T12:47:33;2.00;;;1.88;;
46463;SDS011;32161;48.148;-1.554;2023-06-22T12:50:03;3.65;;;2.50;;
46463;SDS011;32161;48.148;-1.554;2023-06-22T12:54:59;3.63;;;2.10;;
46463;SDS011;32161;48.148;-1.554;2023-06-22T12:57:27;4.15;;;2.50;;
46463;SDS011;32161;48.148;-1.554;2023-06-22T12:59:55;2.95;;;2.42;;
46463;SDS011;32161;48.148;-1.554;2023-06-22T13:02:23;2.30;;;2.17;;
46463;SDS011;32161;48.148;-1.554;2023-06-22T13:04:51;2.50;;;1.95;;
46463;SDS011;32161;48.148;-1.554;2023-06-22T13:07:20;2.15;;;2.05;;
46463;SDS011;32161;48.148;-1.554;2023-06-22T13:09:47;4.47;;;2.03;;
46463;SDS011;32161;48.148;-1.554;2023-06-22T13:12:16;2.67;;;2.47;;
46463;SDS011;32161;48.148;-1.554;2023-06-22T13:14:45;2.72;;;2.20;;
46463;SDS011;32161;48.148;-1.554;2023-06-22T13:17:12;3.65;;;1.85;;
46463;SDS011;32161;48.148;-1.554;2023-06-22T13:19:40;2.05;;;1.95;;
46463;SDS011;32161;48.148;-1.554;2023-06-22T13:22:24;3.00;;;2.13;;
46463;SDS011;32161;48.148;-1.554;2023-06-22T13:24:56;3.53;;;2.33;;
46463;SDS011;32161;48.148;-1.554;2023-06-22T13:27:24;2.72;;;2.53;;
46463;SDS011;32161;48.148;-1.554;2023-06-22T13:29:52;2.28;;;2.05;;
46463;SDS011;32161;48.148;-1.554;2023-06-22T13:32:20;3.35;;;2.17;;
46463;SDS011;32161;48.148;-1.554;2023-06-22T13:34:47;4.10;;;2.30;;
46463;SDS011;32161;48.148;-1.554;2023-06-22T13:37:15;2.38;;;2.17;;
46463;SDS011;32161;48.148;-1.554;2023-06-22T13:39:44;2.75;;;2.00;;
46463;SDS011;32161;48.148;-1.554;2023-06-22T13:42:11;2.80;;;2.60;;
46463;SDS011;32161;48.148;-1.554;2023-06-22T13:44:39;2.50;;;2.38;;
46463;SDS011;32161;48.148;-1.554;2023-06-22T13:47:06;2.17;;;1.90;;
46463;SDS011;32161;48.148;-1.554;2023-06-22T13:49:34;3.45;;;2.13;;
46463;SDS011;32161;48.148;-1.554;2023-06-22T13:52:02;4.43;;;2.13;;
46463;SDS011;32161;48.148;-1.554;2023-06-22T13:54:35;2.47;;;2.25;;
46463;SDS011;32161;48.148;-1.554;2023-06-22T13:57:04;2.60;;;1.80;;
46463;SDS011;32161;48.148;-1.554;2023-06-22T13:59:33;4.25;;;1.95;;
46463;SDS011;32161;48.148;-1.554;2023-06-22T14:02:01;1.90;;;1.80;;
46463;SDS011;32161;48.148;-1.554;2023-06-22T14:04:29;4.85;;;1.70;;
46463;SDS011;32161;48.148;-1.554;2023-06-22T14:06:57;3.50;;;1.73;;
46463;SDS011;32161;48.148;-1.554;2023-06-22T14:09:25;3.78;;;1.73;;
46463;SDS011;32161;48.148;-1.554;2023-06-22T14:11:53;4.82;;;2.05;;
46463;SDS011;32161;48.148;-1.554;2023-06-22T14:14:23;3.40;;;1.70;;
46463;SDS011;32161;48.148;-1.554;2023-06-22T14:16:52;1.90;;;1.80;;
46463;SDS011;32161;48.148;-1.554;2023-06-22T14:19:19;2.00;;;1.90;;
46463;SDS011;32161;48.148;-1.554;2023-06-22T14:21:47;3.75;;;2.08;;
46463;SDS011;32161;48.148;-1.554;2023-06-22T14:24:14;2.20;;;1.73;;
46463;SDS011;32161;48.148;-1.554;2023-06-22T14:26:42;1.80;;;1.70;;
46463;SDS011;32161;48.148;-1.554;2023-06-22T14:29:09;3.28;;;1.98;;
46463;SDS011;32161;48.148;-1.554;2023-06-22T14:31:39;1.83;;;1.73;;
46463;SDS011;32161;48.148;-1.554;2023-06-22T14:34:06;1.95;;;1.63;;
46463;SDS011;32161;48.148;-1.554;2023-06-22T14:36:34;3.10;;;1.55;;
46463;SDS011;32161;48.148;-1.554;2023-06-22T14:39:01;1.77;;;1.67;;
46463;SDS011;32161;48.148;-1.554;2023-06-22T14:41:29;1.95;;;1.77;;
46463;SDS011;32161;48.148;-1.554;2023-06-22T14:43:57;3.60;;;1.98;;
46463;SDS011;32161;48.148;-1.554;2023-06-22T14:46:25;3.47;;;1.65;;